Lima, OH

1:50 AM EDT on July 24, 2016 (GMT -0400)
Lima Allen County | | Change Station

Elev 974 ft 40.71 °N, 84.03 °W | Updated 57 minutes ago

Clear
Clear
76 °F
Feels Like 76 °F
N
0
Wind Variable Wind from North

Today
High -- | Low -- °F
--% Chance of Precip.
Yesterday
High -- | Low -- °F
Precip. -- in
Pressure 29.97 in
Visibility 10.0 miles
Clouds Clear
Dew Point 73 °F
Humidity 91%
Rainfall 0.00 in
Snow Depth Not available.
6:25 AM 8:58 PM
Waning Gibbous, 79% visible
METAR KAOH 240453Z AUTO 00000KT 10SM CLR 24/23 A3000 RMK AO2 SLP148 T02440228 403280206
Pressure 29.97 in
Visibility 10.0 miles
Clouds Clear
Dew Point 73 °F
Humidity 91%
Rainfall 0.00 in
Snow Depth Not available.
6:25 AM 8:58 PM
Waning Gibbous, 79% visible
METAR KAOH 240453Z AUTO 00000KT 10SM CLR 24/23 A3000 RMK AO2 SLP148 T02440228 403280206

10-Day Weather Forecast

Almanac

Astronomy

Jul. 24, 2016 Rise Set
Actual Time
Civil Twilight
Nautical Twilight
Astronomical Twilight
Moon
Length of Visible Light
Length of Day
Tomorrow will be .
, % of the Moon is Illuminated

Today's Extremes

State Highs State Lows

Community

WunderPhotos

Upload Photos

1,927,039 photos uploaded!

WunderBlog® & News

Nearby

Air Quality

  Air Quality AQ Index Pollutant
Not available.

Snow Depth

Station Depth Elevation

Earthquake Activity

City Distance Mag. Time & Date
Minimum magnitude displayed is 2.5.

Coastal Water Temperatures

Place Temperature

Stations

Nearby Weather Stations

Station Location Temp. Windchill Dew Point Humidity Wind Precip. Elev Updated Type
                   

Watches & Warnings

There are currently no watches in effect.